Time;durP1;ratioP1;P1;durP2;ratioP2;P2;SDS_P1;SDS_P2;PMS_P1;PMS_P2;Temp;Humidity;BMP_temperature;BMP_pressure;BME280_temperature;BME280_humidity;BME280_pressure;Samples;Min_cycle;Max_cycle;Signal;HPM_P1;HPM_P2
2021/03/11 00:00:41;;;;;;;36.13;11.73;;;;;;;;;;4990038;28;20037;-57
2021/03/11 00:03:07;;;;;;;30.67;11.88;;;;;;;;;;4979729;28;20029;-57
2021/03/11 00:05:34;;;;;;;34.22;12.27;;;;;;;;;;4971833;28;20543;-59
2021/03/11 00:07:59;;;;;;;37.42;11.88;;;;;;;;;;5000421;28;20508;-59
2021/03/11 00:10:27;;;;;;;32.00;12.50;;;;;;;;;;5005619;28;20037;-58
2021/03/11 00:12:53;;;;;;;29.23;11.63;;;;;;;;;;5000386;28;20696;-59
2021/03/11 00:15:22;;;;;;;31.73;11.20;;;;;;;;;;4985104;28;20045;-59
2021/03/11 00:17:48;;;;;;;33.10;11.52;;;;;;;;;;4988261;28;20036;-60
2021/03/11 00:20:20;;;;;;;27.38;11.13;;;;;;;;;;5004969;28;20719;-59
2021/03/11 00:22:45;;;;;;;34.38;11.90;;;;;;;;;;4987342;28;20035;-58
2021/03/11 00:25:12;;;;;;;29.13;11.95;;;;;;;;;;4977761;28;20025;-58
2021/03/11 00:27:40;;;;;;;22.90;10.50;;;;;;;;;;4986431;28;20966;-59
2021/03/11 00:30:06;;;;;;;33.20;11.65;;;;;;;;;;5003808;28;20033;-59
2021/03/11 00:32:32;;;;;;;27.25;11.48;;;;;;;;;;4984538;28;20057;-61
2021/03/11 00:34:57;;;;;;;35.75;11.98;;;;;;;;;;4985282;28;20116;-60
2021/03/11 00:37:28;;;;;;;28.90;11.73;;;;;;;;;;4968267;28;20071;-58
2021/03/11 00:39:55;;;;;;;29.90;10.45;;;;;;;;;;4969538;28;20038;-59
2021/03/11 00:42:21;;;;;;;31.80;11.50;;;;;;;;;;4965384;28;20038;-59
2021/03/11 00:44:49;;;;;;;36.38;11.50;;;;;;;;;;4983740;28;20030;-57
2021/03/11 00:47:18;;;;;;;28.17;9.35;;;;;;;;;;4982061;28;20034;-58
2021/03/11 00:49:44;;;;;;;21.38;10.32;;;;;;;;;;4985638;28;20061;-59
2021/03/11 00:52:09;;;;;;;29.80;11.38;;;;;;;;;;4982584;28;20461;-58
2021/03/11 00:54:35;;;;;;;26.55;9.93;;;;;;;;;;4971433;28;20033;-59
2021/03/11 00:57:00;;;;;;;30.30;10.38;;;;;;;;;;4935001;28;20037;-60
2021/03/11 00:59:28;;;;;;;27.17;9.73;;;;;;;;;;4986284;28;20121;-60
2021/03/11 01:01:56;;;;;;;29.95;10.80;;;;;;;;;;4965898;28;20031;-59
2021/03/11 01:04:21;;;;;;;29.60;8.68;;;;;;;;;;4983412;28;20045;-58
2021/03/11 01:06:47;;;;;;;22.98;9.73;;;;;;;;;;4966215;28;20042;-59
2021/03/11 01:09:12;;;;;;;24.98;9.90;;;;;;;;;;4967605;28;21148;-59
2021/03/11 01:11:42;;;;;;;28.27;10.50;;;;;;;;;;4977177;28;20084;-58
2021/03/11 01:14:08;;;;;;;33.10;10.95;;;;;;;;;;4986232;28;20084;-58
2021/03/11 01:16:33;;;;;;;26.13;10.63;;;;;;;;;;4970555;28;20486;-58
2021/03/11 01:19:02;;;;;;;23.20;9.77;;;;;;;;;;4983046;28;20033;-59
2021/03/11 01:21:27;;;;;;;22.02;9.45;;;;;;;;;;4983119;28;20263;-59
2021/03/11 01:23:55;;;;;;;30.00;10.20;;;;;;;;;;4981836;28;20054;-57
2021/03/11 01:26:22;;;;;;;26.95;10.38;;;;;;;;;;4981724;28;20030;-61
2021/03/11 01:28:48;;;;;;;29.02;10.63;;;;;;;;;;4968188;28;20121;-61
2021/03/11 01:31:14;;;;;;;26.85;10.77;;;;;;;;;;4965454;28;20065;-60
2021/03/11 01:33:39;;;;;;;24.58;10.60;;;;;;;;;;4983736;28;20038;-58
2021/03/11 01:36:07;;;;;;;29.65;11.30;;;;;;;;;;4979266;28;20034;-60
2021/03/11 01:38:33;;;;;;;31.48;10.25;;;;;;;;;;4980643;28;20042;-59
2021/03/11 01:40:58;;;;;;;25.33;11.10;;;;;;;;;;4980039;28;20089;-58
2021/03/11 01:43:23;;;;;;;31.25;9.98;;;;;;;;;;4963166;28;20029;-59
2021/03/11 01:45:51;;;;;;;23.55;9.07;;;;;;;;;;4982908;28;21039;-59
2021/03/11 01:48:19;;;;;;;26.13;11.38;;;;;;;;;;4981149;28;20034;-59
2021/03/11 01:50:47;;;;;;;25.35;9.35;;;;;;;;;;4977455;28;20038;-59
2021/03/11 01:53:14;;;;;;;26.73;9.75;;;;;;;;;;4980609;28;20045;-59
2021/03/11 01:55:43;;;;;;;20.00;9.80;;;;;;;;;;4980141;28;20366;-58
2021/03/11 01:58:10;;;;;;;25.63;9.98;;;;;;;;;;4963918;28;20041;-58
2021/03/11 02:00:36;;;;;;;32.92;10.93;;;;;;;;;;4981217;28;20046;-60
2021/03/11 02:03:02;;;;;;;26.90;9.50;;;;;;;;;;4965308;28;20046;-58
2021/03/11 02:05:30;;;;;;;25.30;8.55;;;;;;;;;;4964518;28;20069;-58
2021/03/11 02:07:57;;;;;;;37.78;9.52;;;;;;;;;;4980576;28;20050;-58
2021/03/11 02:10:26;;;;;;;23.15;8.90;;;;;;;;;;4979912;28;20045;-59
2021/03/11 02:13:00;;;;;;;30.48;9.52;;;;;;;;;;4980041;28;20041;-59
2021/03/11 02:15:26;;;;;;;27.13;11.05;;;;;;;;;;4981836;28;20592;-59
2021/03/11 02:18:01;;;;;;;21.27;9.05;;;;;;;;;;4982741;28;20039;-59
2021/03/11 02:20:46;;;;;;;27.92;10.15;;;;;;;;;;4962080;28;20025;-59
2021/03/11 02:23:32;;;;;;;25.55;9.27;;;;;;;;;;4949707;28;20025;-59
2021/03/11 02:26:16;;;;;;;22.05;9.45;;;;;;;;;;4938608;28;20084;-59
2021/03/11 02:28:51;;;;;;;24.10;9.55;;;;;;;;;;4969897;28;20073;-59
2021/03/11 02:31:22;;;;;;;27.95;9.60;;;;;;;;;;4971627;28;20068;-59
2021/03/11 02:33:50;;;;;;;23.08;9.63;;;;;;;;;;4967140;28;20042;-58
2021/03/11 02:36:16;;;;;;;40.67;10.32;;;;;;;;;;4980007;28;20041;-58
2021/03/11 02:38:43;;;;;;;43.53;10.38;;;;;;;;;;4979131;28;21109;-58
2021/03/11 02:41:10;;;;;;;25.00;9.02;;;;;;;;;;4985553;28;21038;-58
2021/03/11 02:43:40;;;;;;;25.65;9.32;;;;;;;;;;4982118;28;20405;-60
2021/03/11 02:46:08;;;;;;;25.38;9.85;;;;;;;;;;4979754;28;20034;-61
2021/03/11 02:48:37;;;;;;;24.95;10.23;;;;;;;;;;4993063;28;20025;-59
2021/03/11 02:51:05;;;;;;;32.17;10.02;;;;;;;;;;4979582;28;20104;-60
2021/03/11 02:53:31;;;;;;;22.98;10.18;;;;;;;;;;4985996;28;20065;-58
2021/03/11 02:55:58;;;;;;;35.25;10.05;;;;;;;;;;4997965;28;20402;-59
2021/03/11 02:58:27;;;;;;;26.23;9.13;;;;;;;;;;4987019;28;20029;-60
2021/03/11 03:00:53;;;;;;;23.10;9.43;;;;;;;;;;4997886;28;20072;-59
2021/03/11 03:03:22;;;;;;;24.35;9.23;;;;;;;;;;4981944;28;20038;-59
2021/03/11 03:05:51;;;;;;;20.70;8.57;;;;;;;;;;4967024;28;20033;-60
2021/03/11 03:08:18;;;;;;;23.08;8.80;;;;;;;;;;4993548;28;20116;-59
2021/03/11 03:10:49;;;;;;;26.27;10.02;;;;;;;;;;4983290;28;20531;-58
2021/03/11 03:13:16;;;;;;;22.83;9.93;;;;;;;;;;4995993;28;20030;-58
2021/03/11 03:15:42;;;;;;;19.63;9.07;;;;;;;;;;4986195;28;20040;-59
2021/03/11 03:18:12;;;;;;;16.67;7.05;;;;;;;;;;4982265;28;20038;-58
2021/03/11 03:20:40;;;;;;;19.65;8.30;;;;;;;;;;4997826;28;20032;-58
2021/03/11 03:23:08;;;;;;;22.63;8.70;;;;;;;;;;4985324;28;20209;-57
2021/03/11 03:25:36;;;;;;;18.77;8.63;;;;;;;;;;4990382;28;20036;-58
2021/03/11 03:28:02;;;;;;;16.42;7.18;;;;;;;;;;5001857;28;20029;-59
2021/03/11 03:30:27;;;;;;;15.43;7.53;;;;;;;;;;5004209;28;20673;-59
2021/03/11 03:32:55;;;;;;;20.50;8.40;;;;;;;;;;4969359;28;20042;-59
2021/03/11 03:35:28;;;;;;;21.65;8.50;;;;;;;;;;4981842;28;20049;-61
2021/03/11 03:37:56;;;;;;;20.30;8.50;;;;;;;;;;4971958;28;20488;-58
2021/03/11 03:40:26;;;;;;;20.60;9.35;;;;;;;;;;4982845;28;20467;-59
2021/03/11 03:42:54;;;;;;;19.70;8.75;;;;;;;;;;4985156;28;20030;-58
2021/03/11 03:45:29;;;;;;;21.13;8.32;;;;;;;;;;4982848;28;20033;-60
2021/03/11 03:48:00;;;;;;;20.55;9.38;;;;;;;;;;4986124;28;20156;-59
2021/03/11 03:50:25;;;;;;;19.08;8.98;;;;;;;;;;4970601;28;20990;-60
2021/03/11 03:52:57;;;;;;;23.45;8.48;;;;;;;;;;4954797;28;20061;-61
2021/03/11 03:55:23;;;;;;;20.90;9.18;;;;;;;;;;4966092;28;20041;-58
2021/03/11 03:57:52;;;;;;;24.48;9.18;;;;;;;;;;4984304;28;20565;-57
2021/03/11 04:00:20;;;;;;;26.23;9.20;;;;;;;;;;4969074;28;20589;-58
2021/03/11 04:02:51;;;;;;;18.77;9.10;;;;;;;;;;4982560;28;20034;-58
2021/03/11 04:05:18;;;;;;;23.15;9.32;;;;;;;;;;4972245;28;21415;-58
2021/03/11 04:07:45;;;;;;;21.67;8.98;;;;;;;;;;4971816;28;20063;-58
2021/03/11 04:10:11;;;;;;;19.67;9.02;;;;;;;;;;4984619;28;20069;-59
2021/03/11 04:12:39;;;;;;;25.65;9.15;;;;;;;;;;4985269;28;20121;-59
2021/03/11 04:15:07;;;;;;;23.20;9.95;;;;;;;;;;4982862;28;20045;-58
2021/03/11 04:17:35;;;;;;;24.17;8.27;;;;;;;;;;4985458;28;22094;-59
2021/03/11 04:20:05;;;;;;;20.15;9.05;;;;;;;;;;4986758;28;22088;-59
2021/03/11 04:22:33;;;;;;;23.92;8.75;;;;;;;;;;4969886;28;20987;-57
2021/03/11 04:24:59;;;;;;;20.60;8.98;;;;;;;;;;4986873;28;20038;-60
2021/03/11 04:27:25;;;;;;;20.73;9.57;;;;;;;;;;4986484;28;20034;-58
2021/03/11 04:29:54;;;;;;;20.83;9.10;;;;;;;;;;4981185;28;20469;-58
2021/03/11 04:32:20;;;;;;;23.85;9.38;;;;;;;;;;4974516;28;20046;-58
2021/03/11 04:34:46;;;;;;;20.85;9.05;;;;;;;;;;4982231;28;20038;-58
2021/03/11 04:37:14;;;;;;;21.02;9.50;;;;;;;;;;4983529;28;20528;-57
2021/03/11 04:39:44;;;;;;;26.58;9.35;;;;;;;;;;4967252;28;20041;-59
2021/03/11 04:42:12;;;;;;;24.52;9.95;;;;;;;;;;4983768;28;20033;-59
2021/03/11 04:44:40;;;;;;;22.40;10.20;;;;;;;;;;4982189;28;20040;-61
2021/03/11 04:47:09;;;;;;;19.48;8.80;;;;;;;;;;4965906;28;20101;-59
2021/03/11 04:49:35;;;;;;;20.80;9.13;;;;;;;;;;4981454;28;20165;-58
2021/03/11 04:52:06;;;;;;;26.38;10.10;;;;;;;;;;4981373;28;20038;-58
2021/03/11 04:54:35;;;;;;;22.38;9.57;;;;;;;;;;4978837;28;20649;-60
2021/03/11 04:57:00;;;;;;;21.55;9.75;;;;;;;;;;4979169;28;20026;-59
2021/03/11 04:59:26;;;;;;;21.75;9.35;;;;;;;;;;4979620;28;20489;-58
2021/03/11 05:01:54;;;;;;;24.63;10.32;;;;;;;;;;4966385;28;20434;-59
2021/03/11 05:04:19;;;;;;;23.88;10.77;;;;;;;;;;4979840;28;20026;-59
2021/03/11 05:06:47;;;;;;;17.17;8.63;;;;;;;;;;4979798;28;20938;-56
2021/03/11 05:09:17;;;;;;;20.00;9.68;;;;;;;;;;4980683;28;20030;-58
2021/03/11 05:11:43;;;;;;;16.70;9.27;;;;;;;;;;4968128;28;20051;-57
2021/03/11 05:14:08;;;;;;;19.52;8.55;;;;;;;;;;4981898;28;20073;-58
2021/03/11 05:16:34;;;;;;;22.30;9.38;;;;;;;;;;4980946;28;20061;-57
2021/03/11 05:19:03;;;;;;;21.17;8.75;;;;;;;;;;4978569;28;20029;-59
2021/03/11 05:21:30;;;;;;;19.98;8.98;;;;;;;;;;4979827;28;20057;-57
2021/03/11 05:23:58;;;;;;;24.10;8.63;;;;;;;;;;4965595;28;20128;-56
2021/03/11 05:26:24;;;;;;;20.75;8.57;;;;;;;;;;4962093;28;20033;-58
2021/03/11 05:28:52;;;;;;;25.88;9.95;;;;;;;;;;4968324;28;20125;-59
2021/03/11 05:31:17;;;;;;;22.15;9.70;;;;;;;;;;4968524;28;20560;-60
2021/03/11 05:33:43;;;;;;;19.55;9.20;;;;;;;;;;4983658;28;20038;-58
2021/03/11 05:36:08;;;;;;;19.05;9.13;;;;;;;;;;4987859;28;20041;-59
2021/03/11 05:38:34;;;;;;;21.63;9.98;;;;;;;;;;4990669;28;21981;-58
2021/03/11 05:41:05;;;;;;;23.35;9.02;;;;;;;;;;4987389;28;20036;-58
2021/03/11 05:43:30;;;;;;;20.70;8.52;;;;;;;;;;4983954;28;20025;-57
2021/03/11 05:45:57;;;;;;;26.58;8.98;;;;;;;;;;5003709;28;20044;-56
2021/03/11 05:48:23;;;;;;;22.63;9.30;;;;;;;;;;5000151;28;20876;-58
2021/03/11 05:50:52;;;;;;;21.20;10.15;;;;;;;;;;4986474;28;20038;-57
2021/03/11 05:53:20;;;;;;;18.65;8.75;;;;;;;;;;5001195;28;20122;-58
2021/03/11 05:55:51;;;;;;;27.92;10.00;;;;;;;;;;5003893;28;20457;-57
2021/03/11 05:58:32;;;;;;;23.70;10.68;;;;;;;;;;4999920;28;20453;-58
2021/03/11 06:01:01;;;;;;;31.92;11.70;;;;;;;;;;4970686;28;20049;-58
2021/03/11 06:03:32;;;;;;;19.98;9.32;;;;;;;;;;5000006;28;20044;-59
2021/03/11 06:06:04;;;;;;;25.08;9.43;;;;;;;;;;5002656;28;20029;-60
2021/03/11 06:08:30;;;;;;;23.63;9.65;;;;;;;;;;5001904;28;20190;-57
2021/03/11 06:10:59;;;;;;;31.80;11.13;;;;;;;;;;5001914;28;20053;-57
2021/03/11 06:13:27;;;;;;;27.77;10.60;;;;;;;;;;4971198;28;20539;-57
2021/03/11 06:16:16;;;;;;;23.30;9.98;;;;;;;;;;4989150;28;20033;-57
2021/03/11 06:18:42;;;;;;;24.35;10.70;;;;;;;;;;4980405;28;20048;-58
2021/03/11 06:21:08;;;;;;;26.70;10.60;;;;;;;;;;5001866;28;20063;-58
2021/03/11 06:23:35;;;;;;;21.02;9.75;;;;;;;;;;4982607;28;20037;-57
2021/03/11 06:26:01;;;;;;;19.63;9.43;;;;;;;;;;4999804;28;20045;-58
2021/03/11 06:28:44;;;;;;;19.23;8.48;;;;;;;;;;4997423;28;20036;-58
2021/03/11 06:31:16;;;;;;;29.38;8.52;;;;;;;;;;4996935;28;20033;-59
2021/03/11 06:33:44;;;;;;;19.45;7.47;;;;;;;;;;4983331;28;20064;-59
2021/03/11 06:36:15;;;;;;;25.60;8.38;;;;;;;;;;4980351;28;20033;-60
2021/03/11 06:38:43;;;;;;;18.98;7.00;;;;;;;;;;4967962;28;20125;-59
2021/03/11 06:41:13;;;;;;;16.70;5.95;;;;;;;;;;4965242;28;20132;-58
2021/03/11 06:43:57;;;;;;;13.80;5.53;;;;;;;;;;4982383;28;20026;-57
2021/03/11 06:46:23;;;;;;;17.15;6.97;;;;;;;;;;4979935;28;20029;-58
2021/03/11 06:49:07;;;;;;;19.88;6.78;;;;;;;;;;4980985;28;20038;-56
2021/03/11 06:51:35;;;;;;;14.52;6.60;;;;;;;;;;4980857;28;20034;-58
2021/03/11 06:54:05;;;;;;;18.15;6.70;;;;;;;;;;4967576;28;20449;-57
2021/03/11 06:56:36;;;;;;;16.08;5.90;;;;;;;;;;4952658;28;20030;-57
2021/03/11 06:59:02;;;;;;;15.45;7.10;;;;;;;;;;4970437;28;20780;-58
2021/03/11 07:01:31;;;;;;;19.10;7.38;;;;;;;;;;4983340;28;20129;-59
2021/03/11 07:04:01;;;;;;;14.57;7.13;;;;;;;;;;4986081;28;20049;-59
2021/03/11 07:06:32;;;;;;;14.85;6.32;;;;;;;;;;4986499;28;20038;-58
2021/03/11 07:09:00;;;;;;;14.98;6.50;;;;;;;;;;4987091;28;21323;-57
2021/03/11 07:11:27;;;;;;;18.30;7.03;;;;;;;;;;4989579;28;20022;-57
2021/03/11 07:13:57;;;;;;;14.13;6.78;;;;;;;;;;4970055;28;20743;-58
2021/03/11 07:16:24;;;;;;;14.40;7.05;;;;;;;;;;4985263;28;20097;-59
2021/03/11 07:19:11;;;;;;;18.92;6.50;;;;;;;;;;4986184;28;20130;-59
2021/03/11 07:21:41;;;;;;;13.98;6.18;;;;;;;;;;4986031;28;20034;-57
2021/03/11 07:24:07;;;;;;;15.25;6.55;;;;;;;;;;4972576;28;20101;-56
2021/03/11 07:26:33;;;;;;;18.25;6.70;;;;;;;;;;4981887;28;20026;-56
2021/03/11 07:29:33;;;;;;;15.15;6.40;;;;;;;;;;4989621;28;20033;-57
2021/03/11 07:32:03;;;;;;;18.00;6.13;;;;;;;;;;4958409;28;20065;-56
2021/03/11 07:34:32;;;;;;;13.38;6.20;;;;;;;;;;4983525;28;20026;-61
2021/03/11 07:37:00;;;;;;;14.85;5.97;;;;;;;;;;4963930;28;20041;-57
2021/03/11 07:39:29;;;;;;;16.25;5.53;;;;;;;;;;4956485;28;20038;-55
2021/03/11 07:41:55;;;;;;;20.10;6.35;;;;;;;;;;4982456;28;20030;-57
2021/03/11 07:44:21;;;;;;;15.07;5.75;;;;;;;;;;4976275;28;20030;-58
2021/03/11 07:46:51;;;;;;;12.57;5.32;;;;;;;;;;4986364;28;20030;-58
2021/03/11 07:49:17;;;;;;;20.33;6.00;;;;;;;;;;4980869;28;21978;-59
2021/03/11 07:51:43;;;;;;;18.98;5.30;;;;;;;;;;4981881;28;20458;-59
2021/03/11 07:54:08;;;;;;;14.77;5.50;;;;;;;;;;4984808;28;20057;-58
2021/03/11 07:56:37;;;;;;;25.70;6.72;;;;;;;;;;4968647;28;20029;-57
2021/03/11 07:59:07;;;;;;;26.17;6.53;;;;;;;;;;4983889;28;20030;-56
2021/03/11 08:01:43;;;;;;;22.52;5.47;;;;;;;;;;4982898;28;20026;-58
2021/03/11 08:04:16;;;;;;;12.20;4.85;;;;;;;;;;4985490;28;20025;-56
2021/03/11 08:06:42;;;;;;;12.20;4.97;;;;;;;;;;4980820;28;20041;-58
2021/03/11 08:09:09;;;;;;;20.45;4.63;;;;;;;;;;4985163;28;20041;-59
2021/03/11 08:11:36;;;;;;;19.33;4.47;;;;;;;;;;4966020;28;20030;-58
2021/03/11 08:14:24;;;;;;;20.75;4.43;;;;;;;;;;4984412;28;20038;-55
2021/03/11 08:16:54;;;;;;;16.23;4.32;;;;;;;;;;4984367;28;20576;-58
2021/03/11 08:19:31;;;;;;;20.60;5.20;;;;;;;;;;4965765;28;20046;-56
2021/03/11 08:22:01;;;;;;;17.08;3.65;;;;;;;;;;4952176;28;20034;-57
2021/03/11 08:24:42;;;;;;;21.17;4.32;;;;;;;;;;4968041;28;20744;-56
2021/03/11 08:27:29;;;;;;;29.90;4.13;;;;;;;;;;4966813;28;20159;-54
2021/03/11 08:30:00;;;;;;;30.92;4.28;;;;;;;;;;4984585;28;20038;-55
2021/03/11 08:32:44;;;;;;;30.95;4.25;;;;;;;;;;4995522;28;20056;-56
2021/03/11 08:35:27;;;;;;;26.00;3.47;;;;;;;;;;4970417;28;20038;-58
2021/03/11 08:37:53;;;;;;;26.90;3.92;;;;;;;;;;5001751;28;20045;-56
2021/03/11 08:40:35;;;;;;;23.33;3.03;;;;;;;;;;5002070;28;20028;-57
2021/03/11 08:43:00;;;;;;;39.70;4.45;;;;;;;;;;4992764;28;20104;-58
2021/03/11 08:45:35;;;;;;;32.08;4.28;;;;;;;;;;4985541;28;20041;-57
2021/03/11 08:48:12;;;;;;;26.33;4.13;;;;;;;;;;4984909;28;20069;-58
2021/03/11 08:50:41;;;;;;;39.97;5.15;;;;;;;;;;4982182;28;22037;-57
2021/03/11 08:53:09;;;;;;;33.65;5.55;;;;;;;;;;4985031;28;20070;-56
2021/03/11 08:55:38;;;;;;;28.42;4.95;;;;;;;;;;4979626;28;20037;-58
2021/03/11 08:58:04;;;;;;;37.22;5.57;;;;;;;;;;4984683;28;20684;-58
2021/03/11 09:00:49;;;;;;;38.53;5.60;;;;;;;;;;4999476;28;20477;-58
2021/03/11 09:03:33;;;;;;;38.50;6.07;;;;;;;;;;5001692;28;20083;-58
2021/03/11 09:06:01;;;;;;;34.53;5.07;;;;;;;;;;4998959;28;20097;-58
2021/03/11 09:08:30;;;;;;;49.88;6.85;;;;;;;;;;4983484;28;22061;-59
2021/03/11 09:11:12;;;;;;;55.47;7.05;;;;;;;;;;4966157;28;20835;-57
2021/03/11 09:13:41;;;;;;;48.72;6.80;;;;;;;;;;4999314;28;20651;-58
2021/03/11 09:16:06;;;;;;;46.38;5.97;;;;;;;;;;5002022;28;20091;-58
2021/03/11 09:18:32;;;;;;;53.17;6.40;;;;;;;;;;4981379;28;21022;-59
2021/03/11 09:21:00;;;;;;;45.75;6.25;;;;;;;;;;4986398;28;20029;-59
2021/03/11 09:23:35;;;;;;;59.15;7.47;;;;;;;;;;4985513;28;20051;-59
2021/03/11 09:26:03;;;;;;;37.28;5.00;;;;;;;;;;5001676;28;20026;-59
2021/03/11 09:28:28;;;;;;;35.97;5.47;;;;;;;;;;5002957;28;20044;-59
2021/03/11 09:30:56;;;;;;;41.17;5.82;;;;;;;;;;4995554;28;20076;-58
2021/03/11 09:33:27;;;;;;;37.45;5.55;;;;;;;;;;4998109;28;20087;-59
2021/03/11 09:35:53;;;;;;;32.33;5.20;;;;;;;;;;4987664;28;20493;-58
2021/03/11 09:38:26;;;;;;;39.65;5.10;;;;;;;;;;5000237;28;20480;-59
2021/03/11 09:40:53;;;;;;;39.55;5.90;;;;;;;;;;4982546;28;20027;-60
2021/03/11 09:43:21;;;;;;;38.88;6.13;;;;;;;;;;4987336;28;20065;-60
2021/03/11 09:45:50;;;;;;;52.38;6.50;;;;;;;;;;4985249;28;20029;-58
2021/03/11 09:48:24;;;;;;;30.88;4.30;;;;;;;;;;5001212;28;20030;-58
2021/03/11 09:51:09;;;;;;;45.85;5.80;;;;;;;;;;4991571;28;20059;-60
2021/03/11 09:53:44;;;;;;;47.33;6.18;;;;;;;;;;4999665;28;20050;-59
2021/03/11 09:56:16;;;;;;;31.98;4.85;;;;;;;;;;5000907;28;20091;-58
2021/03/11 09:58:49;;;;;;;38.67;5.78;;;;;;;;;;5001050;28;20173;-57
2021/03/11 10:01:20;;;;;;;43.08;5.32;;;;;;;;;;4999380;28;20764;-58
2021/03/11 10:03:46;;;;;;;51.80;6.22;;;;;;;;;;4984901;28;20041;-58
2021/03/11 10:06:17;;;;;;;36.22;5.28;;;;;;;;;;4996527;28;20108;-57
2021/03/11 10:08:43;;;;;;;47.67;5.95;;;;;;;;;;5002671;28;20092;-58
2021/03/11 10:11:11;;;;;;;39.85;6.68;;;;;;;;;;4999459;28;20047;-58
2021/03/11 10:13:46;;;;;;;38.80;6.05;;;;;;;;;;4998317;28;20037;-58
2021/03/11 10:16:14;;;;;;;44.35;5.13;;;;;;;;;;4982303;28;20049;-58
2021/03/11 10:19:00;;;;;;;35.17;5.22;;;;;;;;;;5000783;28;20029;-57
2021/03/11 10:21:26;;;;;;;42.08;6.03;;;;;;;;;;4999632;28;20059;-56
2021/03/11 10:23:57;;;;;;;51.15;5.25;;;;;;;;;;4999626;28;20048;-56
2021/03/11 10:26:25;;;;;;;39.50;6.40;;;;;;;;;;5000172;28;20037;-57
2021/03/11 10:28:52;;;;;;;44.17;5.47;;;;;;;;;;4999929;28;20053;-57
2021/03/11 10:31:22;;;;;;;45.22;5.70;;;;;;;;;;4997211;28;20052;-56
2021/03/11 10:33:58;;;;;;;47.40;5.30;;;;;;;;;;5000732;28;20037;-57
2021/03/11 10:36:28;;;;;;;35.45;5.07;;;;;;;;;;4998396;28;20069;-57
2021/03/11 10:39:18;;;;;;;36.45;5.45;;;;;;;;;;4999395;28;20033;-57
2021/03/11 10:41:56;;;;;;;20.90;3.78;;;;;;;;;;4998347;28;20089;-57
2021/03/11 10:44:22;;;;;;;29.52;3.95;;;;;;;;;;5000631;28;20080;-57
2021/03/11 10:46:48;;;;;;;36.58;4.65;;;;;;;;;;4978968;28;20543;-58
2021/03/11 10:49:16;;;;;;;26.27;4.32;;;;;;;;;;4995832;28;20034;-57
2021/03/11 10:51:45;;;;;;;31.27;4.25;;;;;;;;;;4976931;28;20095;-59
2021/03/11 10:54:36;;;;;;;32.35;4.68;;;;;;;;;;5001982;28;20033;-58
2021/03/11 10:57:05;;;;;;;37.33;5.10;;;;;;;;;;5001382;28;20083;-58
2021/03/11 10:59:35;;;;;;;35.30;5.50;;;;;;;;;;4982733;28;20021;-58
2021/03/11 11:02:03;;;;;;;33.20;3.95;;;;;;;;;;4972892;28;20030;-60
2021/03/11 11:04:31;;;;;;;24.23;4.00;;;;;;;;;;4999278;28;20033;-58
2021/03/11 11:07:03;;;;;;;31.95;3.78;;;;;;;;;;4975329;28;20049;-57
2021/03/11 11:09:30;;;;;;;37.97;4.13;;;;;;;;;;4996153;28;20048;-57
2021/03/11 11:12:00;;;;;;;34.47;4.55;;;;;;;;;;4963357;28;20033;-57
2021/03/11 11:14:28;;;;;;;42.83;5.45;;;;;;;;;;4983199;28;20137;-57
2021/03/11 11:16:56;;;;;;;31.10;4.20;;;;;;;;;;4967326;28;20137;-57
2021/03/11 11:19:21;;;;;;;35.80;4.18;;;;;;;;;;4996100;28;20925;-57
2021/03/11 11:21:49;;;;;;;37.83;4.97;;;;;;;;;;4996590;28;20165;-59
2021/03/11 11:24:15;;;;;;;36.30;4.07;;;;;;;;;;4979316;28;20087;-57
2021/03/11 11:26:43;;;;;;;35.88;5.75;;;;;;;;;;4995397;28;20037;-59
2021/03/11 11:29:08;;;;;;;26.23;4.72;;;;;;;;;;4993505;28;20033;-58
2021/03/11 11:31:34;;;;;;;36.35;4.90;;;;;;;;;;4987202;28;20394;-58
2021/03/11 11:33:59;;;;;;;36.15;5.40;;;;;;;;;;4981446;28;20025;-58
2021/03/11 11:36:24;;;;;;;36.50;4.68;;;;;;;;;;4983941;28;20037;-58
2021/03/11 11:38:53;;;;;;;25.60;4.05;;;;;;;;;;4978140;28;20380;-59
2021/03/11 11:41:19;;;;;;;37.13;4.25;;;;;;;;;;5001006;28;20118;-57
2021/03/11 11:43:44;;;;;;;39.08;4.30;;;;;;;;;;4980088;28;20042;-59
2021/03/11 11:46:10;;;;;;;20.17;3.15;;;;;;;;;;4984427;28;20030;-59
2021/03/11 11:48:42;;;;;;;35.75;4.13;;;;;;;;;;4985750;28;20117;-57
2021/03/11 11:51:07;;;;;;;20.63;3.97;;;;;;;;;;4997872;28;20661;-58
2021/03/11 11:53:33;;;;;;;26.50;4.43;;;;;;;;;;4983419;28;20114;-58
2021/03/11 11:55:58;;;;;;;30.17;4.43;;;;;;;;;;5001530;28;20049;-59
2021/03/11 11:58:26;;;;;;;26.35;4.03;;;;;;;;;;4998279;28;20046;-58
2021/03/11 12:00:52;;;;;;;27.00;4.13;;;;;;;;;;4963422;28;22159;-58
2021/03/11 12:03:20;;;;;;;24.13;3.45;;;;;;;;;;4986069;28;20068;-58
2021/03/11 12:05:45;;;;;;;27.92;3.42;;;;;;;;;;4985299;28;20043;-59
2021/03/11 12:08:14;;;;;;;31.27;4.00;;;;;;;;;;4984221;28;20493;-58
2021/03/11 12:10:42;;;;;;;34.95;4.68;;;;;;;;;;4984093;28;20164;-57
2021/03/11 12:13:10;;;;;;;34.58;4.55;;;;;;;;;;4997804;28;20037;-59
2021/03/11 12:15:36;;;;;;;28.48;3.28;;;;;;;;;;4999374;28;20034;-59
2021/03/11 12:18:04;;;;;;;27.48;4.15;;;;;;;;;;5000339;28;20140;-61
2021/03/11 12:20:29;;;;;;;22.08;4.05;;;;;;;;;;5001152;28;20723;-59
2021/03/11 12:22:57;;;;;;;27.70;3.72;;;;;;;;;;5000948;28;20065;-58
2021/03/11 12:25:28;;;;;;;36.25;3.78;;;;;;;;;;5003339;28;20080;-60
2021/03/11 12:27:53;;;;;;;18.98;3.40;;;;;;;;;;4980900;28;20038;-60
2021/03/11 12:30:21;;;;;;;25.65;3.38;;;;;;;;;;5001837;28;20079;-59
2021/03/11 12:32:49;;;;;;;29.65;3.90;;;;;;;;;;5001196;28;20127;-59
2021/03/11 12:35:15;;;;;;;24.73;4.30;;;;;;;;;;5000164;28;20037;-59
2021/03/11 12:37:49;;;;;;;27.05;3.47;;;;;;;;;;4986526;28;20034;-58
2021/03/11 12:40:17;;;;;;;24.17;3.17;;;;;;;;;;4962840;28;20512;-59
2021/03/11 12:42:46;;;;;;;13.35;2.25;;;;;;;;;;4992777;28;20593;-58
2021/03/11 12:45:18;;;;;;;17.52;2.25;;;;;;;;;;4972486;28;20079;-60
2021/03/11 12:47:51;;;;;;;16.98;2.88;;;;;;;;;;5002189;28;20657;-59
2021/03/11 12:50:21;;;;;;;20.92;4.07;;;;;;;;;;4996855;28;20038;-59
2021/03/11 12:52:52;;;;;;;18.35;2.72;;;;;;;;;;4988102;28;20085;-59
2021/03/11 12:55:19;;;;;;;15.48;2.33;;;;;;;;;;4983931;28;20053;-58
2021/03/11 12:57:47;;;;;;;18.77;3.08;;;;;;;;;;4984606;28;20025;-59
2021/03/11 13:00:15;;;;;;;16.10;2.15;;;;;;;;;;4994187;28;20061;-58
2021/03/11 13:02:41;;;;;;;13.18;1.65;;;;;;;;;;4972862;28;20121;-59
2021/03/11 13:05:07;;;;;;;12.50;1.73;;;;;;;;;;4985612;28;20710;-59
2021/03/11 13:07:33;;;;;;;18.08;2.58;;;;;;;;;;5000041;28;20037;-59
2021/03/11 13:10:02;;;;;;;20.48;2.92;;;;;;;;;;4986650;28;20045;-59
2021/03/11 13:12:30;;;;;;;21.45;2.70;;;;;;;;;;4998947;28;20041;-59
2021/03/11 13:15:00;;;;;;;19.90;3.03;;;;;;;;;;5004003;28;20033;-59
2021/03/11 13:17:30;;;;;;;25.92;3.20;;;;;;;;;;4997560;28;20033;-58
2021/03/11 13:19:59;;;;;;;16.95;2.22;;;;;;;;;;4998852;28;20029;-58
2021/03/11 13:22:27;;;;;;;11.45;1.88;;;;;;;;;;4963888;28;20077;-60
2021/03/11 13:24:55;;;;;;;18.40;2.63;;;;;;;;;;4994279;28;20038;-58
2021/03/11 13:27:27;;;;;;;16.00;2.58;;;;;;;;;;4999805;28;20034;-58
2021/03/11 13:29:53;;;;;;;19.88;1.92;;;;;;;;;;5001487;28;20038;-60
2021/03/11 13:32:24;;;;;;;20.88;2.60;;;;;;;;;;5000572;28;20110;-60
2021/03/11 13:34:54;;;;;;;8.52;1.83;;;;;;;;;;4971617;28;20046;-59
2021/03/11 13:37:19;;;;;;;12.73;1.80;;;;;;;;;;4998422;28;20080;-59
2021/03/11 13:39:45;;;;;;;10.43;1.98;;;;;;;;;;5002078;28;20427;-59
2021/03/11 13:42:10;;;;;;;9.50;1.67;;;;;;;;;;4983570;28;20030;-59
2021/03/11 13:44:35;;;;;;;17.92;2.67;;;;;;;;;;4956061;28;20038;-61
2021/03/11 13:47:06;;;;;;;15.60;1.95;;;;;;;;;;4982414;28;20033;-59
2021/03/11 13:49:31;;;;;;;13.20;1.75;;;;;;;;;;4995640;28;20045;-60
2021/03/11 13:52:02;;;;;;;17.15;1.95;;;;;;;;;;4985067;28;20048;-60
2021/03/11 13:54:30;;;;;;;10.82;1.98;;;;;;;;;;4993490;28;20029;-60
2021/03/11 13:56:55;;;;;;;12.77;2.08;;;;;;;;;;4992491;28;20893;-61
2021/03/11 13:59:23;;;;;;;19.98;2.03;;;;;;;;;;4977469;28;20147;-60
2021/03/11 14:01:53;;;;;;;13.52;1.95;;;;;;;;;;4981785;28;20477;-61
2021/03/11 14:04:21;;;;;;;21.48;1.63;;;;;;;;;;4996604;28;20149;-60
2021/03/11 14:06:49;;;;;;;17.10;2.13;;;;;;;;;;4997002;28;20037;-60
2021/03/11 14:09:15;;;;;;;5.95;1.85;;;;;;;;;;4987118;28;20907;-60
2021/03/11 14:11:42;;;;;;;12.98;2.10;;;;;;;;;;4983253;28;20083;-62
2021/03/11 14:14:08;;;;;;;14.82;2.28;;;;;;;;;;4984185;28;20162;-61
2021/03/11 14:16:33;;;;;;;14.98;1.77;;;;;;;;;;4990674;28;20045;-60
2021/03/11 14:18:59;;;;;;;12.20;2.00;;;;;;;;;;4983968;28;20126;-61
2021/03/11 14:21:24;;;;;;;8.18;1.42;;;;;;;;;;4993107;28;20045;-61
2021/03/11 14:23:49;;;;;;;16.40;2.60;;;;;;;;;;4967457;28;20175;-61
2021/03/11 14:26:15;;;;;;;7.82;1.50;;;;;;;;;;4958886;28;20081;-60
2021/03/11 14:28:43;;;;;;;21.25;2.47;;;;;;;;;;4966660;28;20056;-61
2021/03/11 14:31:11;;;;;;;10.20;1.65;;;;;;;;;;4990549;28;20040;-60
2021/03/11 14:33:42;;;;;;;13.73;2.03;;;;;;;;;;4986927;28;21173;-61
2021/03/11 14:36:10;;;;;;;12.07;1.90;;;;;;;;;;4980956;28;20073;-63
2021/03/11 14:38:35;;;;;;;8.88;1.48;;;;;;;;;;4959784;28;20038;-62